createdAt,value
2019-02-20T00:01:28.468Z,23.60
2019-02-20T00:04:00.679Z,23.07
2019-02-20T00:06:31.828Z,23.10
2019-02-20T00:09:02.579Z,24.10
2019-02-20T00:11:34.106Z,21.10
2019-02-20T00:14:05.385Z,22.73
2019-02-20T00:16:36.080Z,21.73
2019-02-20T00:19:06.713Z,21.13
2019-02-20T00:21:37.462Z,21.17
2019-02-20T00:24:08.151Z,22.67
2019-02-20T00:26:39.001Z,25.67
2019-02-20T00:29:09.602Z,22.50
2019-02-20T00:31:40.703Z,20.97
2019-02-20T00:34:11.743Z,24.03
2019-02-20T00:36:44.034Z,21.17
2019-02-20T00:39:15.853Z,21.50
2019-02-20T00:41:47.251Z,21.30
2019-02-20T00:44:35.186Z,21.37
2019-02-20T00:47:33.661Z,18.57
2019-02-20T00:50:05.304Z,21.37
2019-02-20T00:52:50.661Z,21.33
2019-02-20T00:55:21.333Z,22.00
2019-02-20T00:57:51.819Z,21.73
2019-02-20T01:00:23.354Z,21.60
2019-02-20T01:02:57.591Z,21.63
2019-02-20T01:05:28.589Z,21.53
2019-02-20T01:07:59.463Z,21.30
2019-02-20T01:10:33.379Z,25.13
2019-02-20T01:13:04.032Z,23.80
2019-02-20T01:15:34.735Z,22.43
2019-02-20T01:18:05.339Z,22.50
2019-02-20T01:20:39.439Z,23.37
2019-02-20T01:23:10.742Z,23.10
2019-02-20T01:25:41.128Z,23.67
2019-02-20T01:28:11.770Z,23.10
2019-02-20T01:30:42.545Z,20.10
2019-02-20T01:33:13.332Z,25.47
2019-02-20T01:35:45.146Z,22.30
2019-02-20T01:38:16.182Z,23.70
2019-02-20T01:40:47.741Z,22.73
2019-02-20T01:43:18.837Z,23.30
2019-02-20T01:45:49.623Z,22.40
2019-02-20T01:48:20.919Z,24.37
2019-02-20T01:50:51.702Z,24.03
2019-02-20T01:53:22.590Z,25.50
2019-02-20T01:55:53.396Z,24.77
2019-02-20T01:58:24.500Z,23.03
2019-02-20T02:00:56.355Z,24.07
2019-02-20T02:03:28.185Z,22.97
2019-02-20T02:05:59.379Z,22.57
2019-02-20T02:08:30.782Z,23.27
2019-02-20T02:11:02.569Z,22.20
2019-02-20T02:13:34.542Z,22.80
2019-02-20T02:16:05.981Z,21.83
2019-02-20T02:18:37.717Z,23.67
2019-02-20T02:21:09.298Z,22.77
2019-02-20T02:23:41.883Z,23.53
2019-02-20T02:26:12.629Z,26.40
2019-02-20T02:28:44.292Z,23.00
2019-02-20T02:31:15.054Z,22.53
2019-02-20T02:33:46.099Z,23.10
2019-02-20T02:36:17.179Z,21.97
2019-02-20T02:38:49.010Z,21.07
2019-02-20T02:41:20.062Z,22.70
2019-02-20T02:43:50.764Z,21.57
2019-02-20T02:46:21.881Z,23.57
2019-02-20T02:48:52.804Z,20.30
2019-02-20T02:51:23.542Z,22.07
2019-02-20T02:53:54.639Z,22.27
2019-02-20T02:56:25.182Z,22.10
2019-02-20T02:58:57.627Z,21.93
2019-02-20T03:01:29.113Z,25.27
2019-02-20T03:04:00.340Z,22.13
2019-02-20T03:06:31.797Z,22.33
2019-02-20T03:09:02.903Z,22.43
2019-02-20T03:11:33.838Z,22.80
2019-02-20T03:14:05.168Z,22.37
2019-02-20T03:16:35.784Z,26.70
2019-02-20T03:19:07.441Z,21.57
2019-02-20T03:21:38.583Z,22.17
2019-02-20T03:24:10.968Z,21.70
2019-02-20T03:26:42.161Z,20.60
2019-02-20T03:29:13.129Z,22.13
2019-02-20T03:31:43.825Z,21.60
2019-02-20T03:34:14.607Z,21.73
2019-02-20T03:36:45.615Z,19.63
2019-02-20T03:39:16.903Z,24.70
2019-02-20T03:41:49.041Z,18.63
2019-02-20T03:44:20.169Z,22.10
2019-02-20T03:46:51.336Z,21.00
2019-02-20T03:49:22.295Z,19.20
2019-02-20T03:51:53.111Z,21.00
2019-02-20T03:54:24.125Z,20.03
2019-02-20T03:56:55.522Z,19.30
2019-02-20T03:59:26.594Z,18.97
2019-02-20T04:01:58.224Z,21.37
2019-02-20T04:04:29.362Z,20.30
2019-02-20T04:07:00.619Z,19.13
2019-02-20T04:09:31.378Z,20.90
2019-02-20T04:12:02.566Z,19.30
2019-02-20T04:14:34.382Z,19.23
2019-02-20T04:17:05.564Z,17.87
2019-02-20T04:19:36.451Z,16.83
2019-02-20T04:22:08.169Z,19.87
2019-02-20T04:24:38.842Z,19.40
2019-02-20T04:27:10.069Z,17.57
2019-02-20T04:29:41.800Z,19.33
2019-02-20T04:32:13.622Z,18.67
2019-02-20T04:34:44.862Z,18.93
2019-02-20T04:37:16.969Z,18.20
2019-02-20T04:39:47.534Z,20.23
2019-02-20T04:42:19.137Z,20.37
2019-02-20T04:44:50.126Z,19.60
2019-02-20T04:47:22.304Z,20.10
2019-02-20T04:49:53.668Z,18.80
2019-02-20T04:52:24.826Z,20.97
2019-02-20T04:54:55.989Z,20.87
2019-02-20T04:57:28.067Z,22.13
2019-02-20T04:59:59.603Z,22.00
2019-02-20T05:02:30.564Z,20.37
2019-02-20T05:05:01.452Z,19.60
2019-02-20T05:07:33.433Z,21.77
2019-02-20T05:10:04.493Z,20.57
2019-02-20T05:12:35.951Z,21.07
2019-02-20T05:15:07.007Z,19.70
2019-02-20T05:17:38.018Z,26.23
2019-02-20T05:20:09.047Z,22.67
2019-02-20T05:22:40.234Z,23.83
2019-02-20T05:25:10.925Z,23.87
2019-02-20T05:27:41.841Z,20.53
2019-02-20T05:30:14.228Z,19.40
2019-02-20T05:32:44.819Z,23.07
2019-02-20T05:35:23.006Z,19.80
2019-02-20T05:37:53.573Z,20.47
2019-02-20T05:40:25.278Z,21.63
2019-02-20T05:42:56.412Z,19.80
2019-02-20T05:45:26.997Z,21.63
2019-02-20T05:48:02.757Z,22.00
2019-02-20T05:50:38.479Z,19.50
2019-02-20T05:53:09.577Z,21.37
2019-02-20T05:55:40.663Z,19.70
2019-02-20T05:58:11.645Z,18.73
2019-02-20T06:00:42.425Z,21.77
2019-02-20T06:03:13.134Z,19.67
2019-02-20T06:05:43.830Z,19.87
2019-02-20T06:08:14.730Z,19.93
2019-02-20T06:10:45.357Z,19.27
2019-02-20T06:13:16.954Z,18.00
2019-02-20T06:15:48.020Z,18.27
2019-02-20T06:18:18.745Z,17.97
2019-02-20T06:20:49.945Z,20.10
2019-02-20T06:23:21.357Z,19.00
2019-02-20T06:25:52.153Z,20.20
2019-02-20T06:28:22.871Z,19.93
2019-02-20T06:30:53.942Z,19.53
2019-02-20T06:33:24.418Z,17.47
2019-02-20T06:35:54.800Z,21.37
2019-02-20T06:38:25.720Z,22.83
2019-02-20T06:41:02.132Z,20.40
2019-02-20T06:43:32.817Z,25.00
2019-02-20T06:46:04.173Z,20.87
2019-02-20T06:48:35.348Z,20.83
2019-02-20T06:51:07.362Z,22.13
2019-02-20T06:53:38.331Z,22.03
2019-02-20T06:56:09.731Z,20.50
2019-02-20T06:58:40.668Z,21.63
2019-02-20T07:01:11.778Z,20.97
2019-02-20T07:03:42.749Z,20.93
2019-02-20T07:06:31.869Z,20.50
2019-02-20T07:09:45.965Z,22.57
2019-02-20T07:12:54.034Z,19.23
2019-02-20T07:16:02.115Z,19.70
2019-02-20T07:18:48.702Z,22.10
2019-02-20T07:21:56.292Z,24.23
2019-02-20T07:25:08.372Z,23.23
2019-02-20T07:28:14.275Z,21.67
2019-02-20T07:30:45.223Z,24.40
2019-02-20T07:33:15.821Z,21.67
2019-02-20T07:35:46.884Z,21.20
2019-02-20T07:38:18.021Z,22.63
2019-02-20T07:40:48.717Z,29.37
2019-02-20T07:43:19.487Z,28.63
2019-02-20T07:45:50.579Z,24.33
2019-02-20T07:48:21.824Z,23.83
2019-02-20T07:50:53.626Z,22.13
2019-02-20T07:53:24.257Z,24.90
2019-02-20T07:55:54.980Z,22.83
2019-02-20T07:58:26.070Z,20.87
2019-02-20T08:00:57.516Z,23.87
2019-02-20T08:03:29.668Z,20.93
2019-02-20T08:06:00.840Z,27.77
2019-02-20T08:08:31.663Z,21.83
2019-02-20T08:11:04.349Z,26.10
2019-02-20T08:13:39.392Z,22.90
2019-02-20T08:16:09.432Z,23.80
2019-02-20T08:18:40.529Z,23.90
2019-02-20T08:21:11.870Z,22.20
2019-02-20T08:23:42.828Z,23.63
2019-02-20T08:26:14.269Z,27.17
2019-02-20T08:28:47.751Z,24.27
2019-02-20T08:31:19.451Z,24.53
2019-02-20T08:33:50.714Z,23.40
2019-02-20T08:36:21.611Z,25.70
2019-02-20T08:38:52.348Z,23.90
2019-02-20T08:41:23.958Z,27.03
2019-02-20T08:43:57.468Z,23.03
2019-02-20T08:46:28.075Z,21.77
2019-02-20T08:48:59.023Z,23.70
2019-02-20T08:51:30.013Z,24.40
2019-02-20T08:54:01.439Z,23.53
2019-02-20T08:56:33.136Z,23.37
2019-02-20T08:59:05.293Z,23.80
2019-02-20T09:01:36.311Z,22.83
2019-02-20T09:04:08.123Z,25.13
2019-02-20T09:06:39.720Z,24.33
2019-02-20T09:09:11.054Z,25.23
2019-02-20T09:11:41.680Z,22.63
2019-02-20T09:14:12.836Z,24.20
2019-02-20T09:16:43.500Z,24.37
2019-02-20T09:19:15.041Z,24.13
2019-02-20T09:21:46.430Z,22.40
2019-02-20T09:24:17.596Z,24.13
2019-02-20T09:26:49.196Z,24.23
2019-02-20T09:29:21.582Z,22.67
2019-02-20T09:31:52.329Z,23.60
2019-02-20T09:34:23.762Z,22.30
2019-02-20T09:36:55.161Z,23.87
2019-02-20T09:39:34.430Z,21.90
2019-02-20T09:42:06.581Z,23.00
2019-02-20T09:44:41.106Z,22.00
2019-02-20T09:47:12.127Z,21.77
2019-02-20T09:49:43.837Z,20.67
2019-02-20T09:52:14.647Z,21.87
2019-02-20T09:54:45.479Z,21.83
2019-02-20T09:57:16.562Z,22.43
2019-02-20T09:59:47.505Z,20.80
2019-02-20T10:02:18.211Z,19.90
2019-02-20T10:04:51.971Z,20.00
2019-02-20T10:07:22.880Z,19.93
2019-02-20T10:09:53.720Z,20.40
2019-02-20T10:12:26.215Z,21.67
2019-02-20T10:14:56.821Z,21.43
2019-02-20T10:17:27.858Z,20.67
2019-02-20T10:19:58.683Z,20.60
2019-02-20T10:22:29.623Z,21.07
2019-02-20T10:25:00.912Z,19.63
2019-02-20T10:27:33.031Z,20.10
2019-02-20T10:30:04.271Z,19.10
2019-02-20T10:32:35.349Z,20.90
2019-02-20T10:35:07.051Z,21.07
2019-02-20T10:37:37.621Z,20.03
2019-02-20T10:40:10.053Z,21.50
2019-02-20T10:42:41.017Z,20.67
2019-02-20T10:45:12.190Z,20.50
2019-02-20T10:47:43.234Z,22.07
2019-02-20T10:50:15.410Z,21.63
2019-02-20T10:52:46.617Z,20.97
2019-02-20T10:55:18.107Z,20.77
2019-02-20T10:57:50.431Z,22.70
2019-02-20T11:00:24.461Z,20.67
2019-02-20T11:02:55.702Z,21.23
2019-02-20T11:05:27.028Z,20.37
2019-02-20T11:07:58.516Z,21.97
2019-02-20T11:10:29.523Z,20.77
2019-02-20T11:13:00.431Z,19.30
2019-02-20T11:15:32.728Z,19.80
2019-02-20T11:18:03.717Z,20.53
2019-02-20T11:20:34.803Z,19.97
2019-02-20T11:23:05.950Z,19.93
2019-02-20T11:25:36.797Z,20.43
2019-02-20T11:28:07.404Z,19.37
2019-02-20T11:30:38.872Z,18.63
2019-02-20T11:33:09.689Z,19.37
2019-02-20T11:35:41.008Z,19.63
2019-02-20T11:38:12.070Z,18.77
2019-02-20T11:40:43.489Z,20.47
2019-02-20T11:43:15.089Z,18.73
2019-02-20T11:45:45.789Z,18.57
2019-02-20T11:48:17.821Z,20.37
2019-02-20T11:50:50.421Z,19.00
2019-02-20T11:53:21.194Z,18.97
2019-02-20T11:55:53.188Z,20.27
2019-02-20T11:58:24.029Z,18.90
2019-02-20T12:00:56.822Z,19.13
2019-02-20T12:03:27.913Z,18.93
2019-02-20T12:05:59.781Z,18.00
2019-02-20T12:08:31.259Z,19.83
2019-02-20T12:11:02.177Z,18.90
2019-02-20T12:13:33.360Z,17.83
2019-02-20T12:16:04.778Z,18.33
2019-02-20T12:18:35.540Z,18.87
2019-02-20T12:21:06.447Z,18.73
2019-02-20T12:23:37.744Z,19.03
2019-02-20T12:26:08.784Z,19.90
2019-02-20T12:28:42.358Z,19.00
2019-02-20T12:31:14.064Z,19.97
2019-02-20T12:33:45.108Z,19.03
2019-02-20T12:36:16.498Z,19.27
2019-02-20T12:38:48.419Z,17.73
2019-02-20T12:41:19.912Z,18.40
2019-02-20T12:43:51.118Z,20.77
2019-02-20T12:46:22.449Z,20.27
2019-02-20T12:48:54.237Z,18.87
2019-02-20T12:51:25.826Z,18.60
2019-02-20T12:53:56.789Z,18.93
2019-02-20T12:56:27.684Z,19.00
2019-02-20T12:59:07.455Z,17.37
2019-02-20T13:01:31.472Z,20.57
2019-02-20T13:04:02.133Z,19.43
2019-02-20T13:06:32.910Z,19.23
2019-02-20T13:09:05.006Z,19.47
2019-02-20T13:11:35.586Z,19.70
2019-02-20T13:14:06.513Z,19.17
2019-02-20T13:16:37.404Z,20.90
2019-02-20T13:19:08.579Z,19.00
2019-02-20T13:21:39.597Z,19.70
2019-02-20T13:24:11.140Z,19.43
2019-02-20T13:26:42.462Z,19.53
2019-02-20T13:29:14.987Z,18.17
2019-02-20T13:31:46.751Z,19.03
2019-02-20T13:34:17.373Z,18.80
2019-02-20T13:36:48.704Z,19.87
2019-02-20T13:39:20.153Z,19.07
2019-02-20T13:41:52.608Z,19.43
2019-02-20T13:44:23.870Z,19.50
2019-02-20T13:46:55.446Z,21.13
2019-02-20T13:49:28.312Z,18.97
2019-02-20T13:51:59.868Z,20.27
2019-02-20T13:54:30.618Z,19.77
2019-02-20T13:57:02.428Z,19.87
2019-02-20T13:59:33.857Z,21.80
2019-02-20T14:02:05.071Z,19.80
2019-02-20T14:04:36.258Z,18.23
2019-02-20T14:07:07.447Z,18.70
2019-02-20T14:09:40.357Z,19.17
2019-02-20T14:12:11.343Z,19.37
2019-02-20T14:14:42.985Z,18.73
2019-02-20T14:17:15.346Z,19.40
2019-02-20T14:19:46.479Z,19.90
2019-02-20T14:22:20.323Z,18.50
2019-02-20T14:24:52.312Z,19.07
2019-02-20T14:27:23.747Z,21.40
2019-02-20T14:29:55.307Z,18.37
2019-02-20T14:32:26.584Z,17.50
2019-02-20T14:34:59.630Z,17.53
2019-02-20T14:37:31.220Z,19.00
2019-02-20T14:40:02.613Z,18.23
2019-02-20T14:42:34.035Z,18.33
2019-02-20T14:45:06.895Z,19.03
2019-02-20T14:47:39.039Z,17.93
2019-02-20T14:50:11.548Z,18.67
2019-02-20T14:52:42.982Z,19.30
2019-02-20T14:55:15.983Z,18.07
2019-02-20T14:57:46.692Z,17.87
2019-02-20T15:00:17.467Z,18.43
2019-02-20T15:02:48.652Z,18.27
2019-02-20T15:05:19.993Z,17.10
2019-02-20T15:07:52.493Z,17.60
2019-02-20T15:10:23.546Z,18.50
2019-02-20T15:12:56.075Z,17.83
2019-02-20T15:15:27.781Z,17.27
2019-02-20T15:18:02.491Z,17.03
2019-02-20T15:20:35.583Z,18.43
2019-02-20T15:23:07.235Z,18.60
2019-02-20T15:25:38.520Z,19.87
2019-02-20T15:28:11.157Z,19.73
2019-02-20T15:30:43.113Z,18.90
2019-02-20T15:33:15.080Z,19.10
2019-02-20T15:35:46.503Z,18.07
2019-02-20T15:38:20.532Z,18.60
2019-02-20T15:40:53.170Z,20.40
2019-02-20T15:43:24.786Z,20.67
2019-02-20T15:45:56.088Z,20.00
2019-02-20T15:48:27.037Z,20.27
2019-02-20T15:50:58.934Z,22.53
2019-02-20T15:53:30.432Z,21.93
2019-02-20T15:56:02.328Z,22.23
2019-02-20T15:58:33.401Z,21.20
2019-02-20T16:01:11.585Z,22.33
2019-02-20T16:03:43.509Z,21.70
2019-02-20T16:06:15.310Z,21.40
2019-02-20T16:08:49.625Z,22.37
2019-02-20T16:11:22.347Z,21.10
2019-02-20T16:13:54.761Z,23.50
2019-02-20T16:16:28.223Z,21.37
2019-02-20T16:19:00.822Z,22.93
2019-02-20T16:21:33.828Z,20.77
2019-02-20T16:24:06.544Z,22.40
2019-02-20T16:26:40.722Z,22.17
2019-02-20T16:29:13.665Z,20.70
2019-02-20T16:31:45.782Z,21.10
2019-02-20T16:34:18.290Z,23.70
2019-02-20T16:36:51.881Z,23.80
2019-02-20T16:39:23.950Z,24.20
2019-02-20T16:41:56.000Z,22.73
2019-02-20T16:44:28.918Z,24.63
2019-02-20T16:47:01.953Z,23.17
2019-02-20T16:49:37.874Z,24.10
2019-02-20T16:52:12.341Z,23.37
2019-02-20T16:54:44.384Z,22.80
2019-02-20T16:57:16.098Z,26.33
2019-02-20T16:59:48.226Z,22.63
2019-02-20T17:02:19.740Z,23.73
2019-02-20T17:04:59.187Z,23.30
2019-02-20T17:07:25.668Z,24.37
2019-02-20T17:09:58.699Z,24.00
2019-02-20T17:12:30.506Z,22.57
2019-02-20T17:15:01.456Z,29.40
2019-02-20T17:17:33.680Z,22.93
2019-02-20T17:20:05.181Z,23.80
2019-02-20T17:22:36.499Z,25.53
2019-02-20T17:25:09.907Z,23.70
2019-02-20T17:27:42.909Z,22.77
2019-02-20T17:30:16.651Z,25.03
2019-02-20T17:32:49.800Z,21.37
2019-02-20T17:35:22.472Z,23.50
2019-02-20T17:37:55.152Z,22.00
2019-02-20T17:40:28.281Z,23.77
2019-02-20T17:43:00.958Z,23.87
2019-02-20T17:45:33.705Z,22.63
2019-02-20T17:48:05.823Z,25.77
2019-02-20T17:50:37.378Z,23.47
2019-02-20T17:53:09.047Z,24.17
2019-02-20T17:55:42.779Z,23.57
2019-02-20T17:58:17.698Z,23.60
2019-02-20T18:00:48.369Z,28.37
2019-02-20T18:03:20.218Z,27.70
2019-02-20T18:05:52.361Z,26.23
2019-02-20T18:08:25.366Z,25.47
2019-02-20T18:10:58.530Z,25.23
2019-02-20T18:13:30.506Z,27.27
2019-02-20T18:16:04.118Z,27.67
2019-02-20T18:18:35.297Z,37.93
2019-02-20T18:21:07.712Z,28.87
2019-02-20T18:23:40.160Z,31.40
2019-02-20T18:26:12.582Z,27.37
2019-02-20T18:28:44.224Z,28.00
2019-02-20T18:31:16.655Z,35.47
2019-02-20T18:33:50.608Z,27.90
2019-02-20T18:36:23.502Z,31.93
2019-02-20T18:38:55.477Z,32.83
2019-02-20T18:41:28.100Z,29.27
2019-02-20T18:43:59.927Z,33.50
2019-02-20T18:46:32.306Z,31.43
2019-02-20T18:49:05.561Z,31.23
2019-02-20T18:51:37.862Z,30.90
2019-02-20T18:54:11.388Z,29.10
2019-02-20T18:56:48.198Z,28.40
2019-02-20T18:59:20.444Z,33.93
2019-02-20T19:01:52.858Z,27.80
2019-02-20T19:04:25.382Z,28.57
2019-02-20T19:06:57.663Z,30.23
2019-02-20T19:09:33.166Z,36.17
2019-02-20T19:12:46.175Z,31.00
2019-02-20T19:15:55.411Z,29.93
2019-02-20T19:19:11.511Z,28.90
2019-02-20T19:22:20.699Z,31.03
2019-02-20T19:25:39.961Z,30.33
2019-02-20T19:28:48.226Z,34.57
2019-02-20T19:31:56.591Z,33.83
2019-02-20T19:34:51.872Z,28.17
2019-02-20T19:37:41.541Z,31.83
2019-02-20T19:41:15.602Z,32.73
2019-02-20T19:44:26.818Z,32.47
2019-02-20T19:47:47.565Z,31.80
2019-02-20T19:50:56.547Z,38.27
2019-02-20T19:54:05.581Z,29.73
2019-02-20T19:56:50.629Z,32.37
2019-02-20T20:00:06.746Z,31.40
2019-02-20T20:03:06.402Z,32.20
2019-02-20T20:06:12.708Z,30.20
2019-02-20T20:09:10.888Z,32.40
2019-02-20T20:12:24.455Z,36.20
2019-02-20T20:15:39.333Z,35.27
2019-02-20T20:18:28.430Z,32.03
2019-02-20T20:21:49.594Z,35.10
2019-02-20T20:24:55.359Z,33.33
2019-02-20T20:27:58.856Z,34.63
2019-02-20T20:31:14.966Z,34.97
2019-02-20T20:34:19.610Z,35.27
2019-02-20T20:37:17.623Z,28.97
2019-02-20T20:40:33.550Z,30.80
2019-02-20T20:43:52.147Z,30.10
2019-02-20T20:46:33.117Z,31.97
2019-02-20T20:49:37.655Z,29.70
2019-02-20T20:52:38.665Z,30.83
2019-02-20T20:55:39.901Z,27.60
2019-02-20T20:58:41.158Z,29.97
2019-02-20T21:01:42.537Z,29.30
2019-02-20T21:05:01.476Z,35.77
2019-02-20T21:07:45.570Z,29.63
2019-02-20T21:10:46.318Z,31.97
2019-02-20T21:13:47.454Z,28.03
2019-02-20T21:17:23.459Z,27.23
2019-02-20T21:20:36.856Z,28.67
2019-02-20T21:23:40.944Z,35.10
2019-02-20T21:26:37.911Z,33.33
2019-02-20T21:29:48.191Z,27.10
2019-02-20T21:32:50.443Z,26.50
2019-02-20T21:35:50.909Z,26.30
2019-02-20T21:39:15.157Z,26.50
2019-02-20T21:41:53.961Z,28.90
2019-02-20T21:45:12.514Z,28.30
2019-02-20T21:48:36.762Z,32.33
2019-02-20T21:51:32.618Z,26.90
2019-02-20T21:54:39.187Z,33.87
2019-02-20T21:57:44.326Z,26.37
2019-02-20T22:00:46.469Z,28.73
2019-02-20T22:03:54.955Z,27.53
2019-02-20T22:06:43.047Z,26.37
2019-02-20T22:09:58.155Z,25.90
2019-02-20T22:12:54.018Z,25.50
2019-02-20T22:15:46.878Z,26.10
2019-02-20T22:18:31.168Z,24.77
2019-02-20T22:21:44.223Z,28.20
2019-02-20T22:24:43.139Z,27.77
2019-02-20T22:27:49.348Z,26.50
2019-02-20T22:30:54.209Z,25.97
2019-02-20T22:34:08.693Z,28.20
2019-02-20T22:37:09.611Z,28.10
2019-02-20T22:40:10.915Z,26.30
2019-02-20T22:43:26.908Z,26.37
2019-02-20T22:46:23.710Z,26.13
2019-02-20T22:49:15.299Z,26.57
2019-02-20T22:52:08.781Z,27.40
2019-02-20T22:55:14.794Z,26.80
2019-02-20T22:58:32.746Z,27.77
2019-02-20T23:01:33.979Z,25.57
2019-02-20T23:04:47.419Z,30.10
2019-02-20T23:07:44.962Z,32.83
2019-02-20T23:10:47.447Z,28.23
2019-02-20T23:13:53.841Z,31.30
2019-02-20T23:16:24.711Z,31.27
2019-02-20T23:18:55.209Z,30.40
2019-02-20T23:21:26.365Z,26.83
2019-02-20T23:23:57.363Z,27.73
2019-02-20T23:26:27.987Z,29.87
2019-02-20T23:28:59.122Z,27.60
2019-02-20T23:31:29.915Z,30.40
2019-02-20T23:34:01.170Z,28.00
2019-02-20T23:36:31.972Z,26.87
2019-02-20T23:39:02.596Z,32.60
2019-02-20T23:41:33.502Z,28.37
2019-02-20T23:44:04.158Z,29.10
2019-02-20T23:46:35.580Z,29.10
2019-02-20T23:49:06.397Z,28.03
2019-02-20T23:51:37.067Z,28.37
2019-02-20T23:54:07.939Z,28.27
2019-02-20T23:56:38.485Z,30.37
2019-02-20T23:59:10.725Z,30.20
